Flight Track Log - Related Links

Times and Time Zones

All times are in EDT time to prevent confusion due to time zone crossing. See the THY2190 flight status page for this flight to view local times or setup timezone preferences in your user account.

Time Position Orientation Groundspeed Altitude Reporting Facility
EDT Latitude Longitude Course Direction KTS MPH feet Rate Location/Type
Sun 04:55:15 PM 40.9820 28.8150 253° West 5 6  Level FlightAware ADS-B
Sun 04:55:56 PM 40.9820 28.8140 270° West 6 7 238 Level FlightAware ADS-B
Sun 04:58:00 PM 40.9462 29.0079 104° East  Level Estimated
Sun 04:59:00 PM 40.9287 29.1016 104° East  Level Estimated
Sun 05:00:00 PM 40.9112 29.1953 104° East  Level Estimated
Sun 05:00:40 PM 40.9830 28.8140 104° East 7 8  Level FlightAware ADS-B
Sun 05:01:06 PM 40.9850 28.8140 360° North 13 15 383 Level FlightAware ADS-B
Sun 05:02:46 PM 40.9850 28.8120 270° West 19 22 403 Level FlightAware ADS-B
Sun 05:03:11 PM 40.9820 28.8120 180° South 28 32 502 Level FlightAware ADS-B
Sun 05:03:36 PM 40.9800 28.8120 180° South 28 32 535 Level FlightAware ADS-B
Sun 05:04:23 PM 40.9760 28.8120 180° South 19 22 573 Level FlightAware ADS-B
Sun 05:07:00 PM 40.9310 29.0575 104° East  Level Estimated
Sun 05:08:00 PM 40.9136 29.1513 104° East  Level Estimated
Sun 05:08:12 PM 40.9840 28.8060 104° East 200  Level FlightAware ADS-B
Sun 05:09:32 PM 41.0500 28.8070 North 213 245 3,400 2,660 Climbing FlightAware ADS-B
Sun 05:09:58 PM 41.0740 28.8150 14° North 216 249 4,900 3,150 Climbing FlightAware ADS-B
Sun 05:10:12 PM 41.0820 28.8280 51° Northeast 223 257 5,500 2,600 Climbing FlightAware ADS-B
Sun 05:10:28 PM 41.0870 28.8520 75° East 252 290 6,200 2,800 Climbing FlightAware ADS-B
Sun 05:10:42 PM 41.0900 28.8780 81° East 263 303 6,900 1,800 Climbing FlightAware ADS-B
Sun 05:11:28 PM 41.1000 28.9510 80° East 289 333 8,000 2,889 Climbing FlightAware ADS-B
Sun 05:12:03 PM 41.0960 29.0170 95° East 319 367 10,800 3,143 Climbing FlightAware ADS-B
Sun 05:12:52 PM 41.0520 29.1090 122° Southeast 366 421 12,400 2,427 Climbing FlightAware ADS-B
Sun 05:13:32 PM 41.0160 29.1910 120° Southeast 377 434 14,400 2,720 Climbing FlightAware ADS-B
Sun 05:14:07 PM 40.9850 29.2640 119° Southeast 395 455 15,800 2,560 Climbing FlightAware ADS-B
Sun 05:14:47 PM 40.9490 29.3480 120° Southeast 397 457 17,600 2,372 Climbing FlightAware ADS-B
Sun 05:15:33 PM 40.9060 29.4460 120° Southeast 418 481 19,200 2,175 Climbing FlightAware ADS-B
Sun 05:16:07 PM 40.8710 29.5240 121° Southeast 427 491 20,500 2,514 Climbing FlightAware ADS-B
Sun 05:16:47 PM 40.8310 29.6160 120° Southeast 426 490 22,300 2,250 Climbing FlightAware ADS-B
Sun 05:17:27 PM 40.7960 29.6960 120° Southeast 427 491 23,500 2,000 Climbing FlightAware ADS-B
Sun 05:18:08 PM 40.7520 29.7960 120° Southeast 411 473 25,000 1,125 Climbing FlightAware ADS-B
Sun 05:18:47 PM 40.7140 29.8810 121° Southeast 412 474 25,000  Level FlightAware ADS-B
Sun 05:19:32 PM 40.6710 29.9790 120° Southeast 413 475 25,000  Level FlightAware ADS-B
Sun 05:20:12 PM 40.6320 30.0660 121° Southeast 413 475 25,000  Level FlightAware ADS-B
Sun 05:20:57 PM 40.5890 30.1620 121° Southeast 413 475 25,000  Level FlightAware ADS-B
Sun 05:21:32 PM 40.5570 30.2330 121° Southeast 415 478 25,000  Level FlightAware ADS-B
Sun 05:22:17 PM 40.5110 30.3370 120° Southeast 415 478 25,000  Level FlightAware ADS-B
Sun 05:22:58 PM 40.4710 30.4250 121° Southeast 414 476 25,000  Level FlightAware ADS-B
Sun 05:23:27 PM 40.4450 30.4820 121° Southeast 415 478 25,000  Level FlightAware ADS-B
Sun 05:24:13 PM 40.4000 30.5810 121° Southeast 416 479 25,000  Level FlightAware ADS-B
Sun 05:24:57 PM 40.3530 30.6840 121° Southeast 416 479 25,000 -121 Level FlightAware ADS-B
Sun 05:25:52 PM 40.3090 30.8100 115° Southeast 417 480 24,800 -568 Descending FlightAware ADS-B
Sun 05:26:32 PM 40.2990 30.9080 98° East 400 460 24,100 -1,350 Descending FlightAware ADS-B
Sun 05:27:12 PM 40.2900 30.9950 98° East 393 452 23,000 -1,600 Descending FlightAware ADS-B
Sun 05:28:17 PM 40.2740 31.1480 98° East 380 437 21,300 -1,102 Descending FlightAware ADS-B
Sun 05:28:50 PM 40.2670 31.2180 97° East 377 434 21,200 -1,125 Descending FlightAware ADS-B
Sun 05:29:37 PM 40.2550 31.3280 98° East 370 426 19,800 -1,416 Descending FlightAware ADS-B
Sun 05:30:19 PM 40.2460 31.4130 98° East 371 427 19,100 -1,263 Descending FlightAware ADS-B
Sun 05:31:12 PM 40.2320 31.5370 98° East 358 412 17,800 -1,419 Descending FlightAware ADS-B
Sun 05:31:52 PM 40.2230 31.6200 98° East 353 406 16,900 -1,443 Descending FlightAware ADS-B
Sun 05:32:31 PM 40.2140 31.7030 98° East 345 397 15,900 -867 Descending FlightAware ADS-B
Sun 05:33:15 PM 40.2050 31.7820 98° East 345 397 15,700 -150 Descending FlightAware ADS-B
Sun 05:33:51 PM 40.1980 31.8450 98° East 345 397 15,700  Level FlightAware ADS-B
Sun 05:34:37 PM 40.1900 31.9260 97° East 345 397 15,700 -3,033 Level FlightAware ADS-B
Sun 05:35:22 PM 40.1400 32.0370 120° Southeast 325 374 11,100 -3,929 Descending FlightAware ADS-B
Sun 05:36:01 PM 40.1220 32.1140 107° East 312 359 10,200 -1,385 Descending FlightAware ADS-B
Sun 05:36:27 PM 40.1120 32.1580 107° East 311 358 9,600 -1,309 Descending FlightAware ADS-B
Sun 05:36:56 PM 40.0990 32.2140 107° East 298 343 9,000 -667 Descending FlightAware ADS-B
Sun 05:37:21 PM 40.0890 32.2550 108° East 299 344 9,000  Level FlightAware ADS-B
Sun 05:37:47 PM 40.0790 32.2980 107° East 296 341 9,000  Level FlightAware ADS-B
Sun 05:38:16 PM 40.0670 32.3510 106° East 296 341 9,000 -200 Level FlightAware ADS-B
Sun 05:38:47 PM 40.0540 32.4020 108° East 296 341 8,800 -429 Descending FlightAware ADS-B
Sun 05:39:12 PM 40.0440 32.4460 107° East 278 320 8,600 -490 Descending FlightAware ADS-B
Sun 05:39:36 PM 40.0370 32.4770 106° East 262 302 8,400 -615 Descending FlightAware ADS-B
Sun 05:39:51 PM 40.0310 32.5030 107° East 254 292 8,200 -522 Descending FlightAware ADS-B
Sun 05:40:22 PM 40.0200 32.5500 107° East 250 288 8,000 -200 Descending FlightAware ADS-B
Sun 05:40:51 PM 40.0090 32.5950 108° East 252 290 8,000 -218 Level FlightAware ADS-B
Sun 05:41:17 PM 40.0010 32.6300 107° East 253 291 7,800 -750 Descending FlightAware ADS-B
Sun 05:41:47 PM 39.9900 32.6740 108° East 244 281 7,300 -1,017 Descending FlightAware ADS-B
Sun 05:42:16 PM 39.9810 32.7140 106° East 242 278 6,800 -873 Descending FlightAware ADS-B
Sun 05:42:42 PM 39.9720 32.7500 108° East 239 275 6,500 -360 Descending FlightAware ADS-B
Sun 05:43:06 PM 39.9640 32.7860 106° East 241 277 6,500 -118 Level FlightAware ADS-B
Sun 05:43:33 PM 39.9570 32.8180 106° East 241 277 6,400 -295 Descending FlightAware ADS-B
Sun 05:44:07 PM 39.9800 32.8560 52° Northeast 216 249 6,200 -712 Descending FlightAware ADS-B
Sun 05:44:32 PM 40.0000 32.8750 36° Northeast 204 235 5,700 -1,200 Descending FlightAware ADS-B
Sun 05:44:47 PM 40.0120 32.8860 35° Northeast 200 230 5,400 -933 Descending FlightAware ADS-B
Sun 05:45:17 PM 40.0320 32.9050 36° Northeast 163 188 5,000 -682 Descending FlightAware ADS-B
Sun 05:45:31 PM 40.0390 32.9110 33° Northeast 144 166 4,900 -857 Descending FlightAware ADS-B
Sun 05:45:52 PM 40.0510 32.9240 40° Northeast 134 154 4,500 -857 Descending FlightAware ADS-B
Sun 05:46:27 PM 40.0680 32.9400 36° Northeast 132 152 4,100 -554 Descending FlightAware ADS-B
Sun 05:46:57 PM 40.0820 32.9530 35° Northeast 131 151 3,900 -643 Descending FlightAware ADS-B
Sun 05:47:23 PM 40.0950 32.9660 37° Northeast 131 151 3,500 -421 Descending FlightAware ADS-B
Sun 05:47:54 PM 40.1070 32.9770 35° Northeast 131 151 3,500  Level FlightAware ADS-B
Sun 05:50:00 PM 40.1281 32.9951 33° Northeast  Level Estimated
Sun 05:51:00 PM 40.1281 32.9951 49° Northeast  Level Estimated
Sun 05:52:00 PM 40.1281 32.9951 49° Northeast  Level Estimated
Sun 05:53:00 PM 40.1281 32.9951 49° Northeast  Level Estimated
Sun 05:54:00 PM 40.1281 32.9951 49° Northeast  Level Estimated
Sun 05:55:00 PM 40.1281 32.9951 49° Northeast  Level Estimated
Sun 05:56:00 PM 40.1281 32.9951 49° Northeast  Level Estimated
Sun 05:57:00 PM 40.1281 32.9951 49° Northeast  Level Estimated
Sun 05:58:00 PM 40.1281 32.9951 49° Northeast  Level Estimated
Sun 05:59:00 PM 40.1281 32.9951 49° Northeast  Level Estimated

Login

Don't have an account? Register now (free) for customized features, flight alerts, and more!